Carlisle, KY (40311)

12:19 EST le 24 février 2017 (GMT -0500)
Cynthiana | | Change Station
Avis météorologiques actifs: Special Statement

Alt. 0 ft 38.39 °N, 84.27 °W | Updated 2 minutes ago

Partiellement nuageux
Partiellement nuageux
71.2 ° F
Paraît 75 ° F
N
3.1
Vent Variable Vent de SSO
Gusts 12.4 mph

Aujourd'hui
Haut(e) -- | Bas -- ° F
--% Risque de précip.
Hier
Haut(e) -- | Bas -- ° F
Precip. -- pouce
Pression 29.74 pouce
Visibilité 10.0 Miles terrestres
Nuages Ciel dégagé
indice de chaleur 75 ° F
Point de rosée 60 ° F
Humidité 66%
Précipitations 0.00 pouce
Profondeur de la couche neigeuse Non disponible.
7:14 AM 6:24 PM
Lune descendante, 4% visible
METAR KIOB 241715Z AUTO 24019G27KT 10SM CLR 22/12 A2974 RMK AO2
Pression 29.74 pouce
Visibilité 10.0 Miles terrestres
Nuages Ciel dégagé
indice de chaleur 75 ° F
Point de rosée 60 ° F
Humidité 66%
Précipitations 0.00 pouce
Profondeur de la couche neigeuse Non disponible.
7:14 AM 6:24 PM
Lune descendante, 4% visible
METAR KIOB 241715Z AUTO 24019G27KT 10SM CLR 22/12 A2974 RMK AO2

Get Your Daily Forecast Email!

Thanks for signing up!

Be on the lookout for a verification email in your inbox.

You'll start receiving the daily forecast at 8 AM.

×

10-Day Weather Forecast

Almanac

Astronomie

Feb. 24, 2017 Lever Coucher
Temps réel
Crépuscule civil
Crépuscule nautique
Crépuscule astronomique
Lune
Durée de lumière visible
Longueur du jour
Tomorrow will be .
, % of the Moon is Illuminated

Extrêmes aujourd'hui

State Highs State Lows

Community

WunderPhotos

Upload Photos

1,962,540 Photos téléchargées !

WunderBlog® & News

Nearby

Qualité de l'air

  Qualité de l'air Indice de la qualité de l'air Polluant
Not available.

Épaisseur de neige

Station Depth Altitude

Activité sismique

Ville Distance Mag. Time & Date
Minimum magnitude displayed is 2.5.

Températures des eaux côtières

Lieu Température

Stations

Stations météo à proximité

Emplacement de la station Température Refroidissement éolien Point de rosée Humidité Vent Precip. Alt. Mise à jour Type
                   

Watches & Warnings

Special Statement
Issued: 10:02 CST Feb. 24, 2017 – National Weather Service

... Gusty south winds will continue this afternoon...

South winds will remain gusty through the afternoon, with frequent
gusts near 35 mph. Winds this strong will make driving difficult
for high-profile vehicles on east-west roadways... including
Interstate 64... and the parkways in Kentucky.


Ras